sensor_id;sensor_type;location;lat;lon;timestamp;P1;durP1;ratioP1;P2;durP2;ratioP2
3643;SDS011;1838;50.742;7.158;2022-09-09T00:01:43;2.93;;;1.50;;
3643;SDS011;1838;50.742;7.158;2022-09-09T00:04:22;5.17;;;1.40;;
3643;SDS011;1838;50.742;7.158;2022-09-09T00:09:48;2.03;;;1.30;;
3643;SDS011;1838;50.742;7.158;2022-09-09T00:15:18;2.90;;;1.20;;
3643;SDS011;1838;50.742;7.158;2022-09-09T00:23:34;8.90;;;2.37;;
3643;SDS011;1838;50.742;7.158;2022-09-09T00:26:19;3.30;;;1.33;;
3643;SDS011;1838;50.742;7.158;2022-09-09T00:29:19;4.53;;;1.57;;
3643;SDS011;1838;50.742;7.158;2022-09-09T00:31:48;2.00;;;1.33;;
3643;SDS011;1838;50.742;7.158;2022-09-09T00:34:21;6.90;;;1.73;;
3643;SDS011;1838;50.742;7.158;2022-09-09T00:36:50;4.50;;;2.20;;
3643;SDS011;1838;50.742;7.158;2022-09-09T00:40:00;3.60;;;1.50;;
3643;SDS011;1838;50.742;7.158;2022-09-09T00:44:39;4.17;;;1.60;;
3643;SDS011;1838;50.742;7.158;2022-09-09T00:53:13;5.77;;;1.70;;
3643;SDS011;1838;50.742;7.158;2022-09-09T00:57:41;3.30;;;1.53;;
3643;SDS011;1838;50.742;7.158;2022-09-09T01:08:26;7.23;;;2.00;;
3643;SDS011;1838;50.742;7.158;2022-09-09T01:11:03;4.77;;;1.80;;
3643;SDS011;1838;50.742;7.158;2022-09-09T01:13:33;2.37;;;1.37;;
3643;SDS011;1838;50.742;7.158;2022-09-09T01:16:04;2.33;;;1.40;;
3643;SDS011;1838;50.742;7.158;2022-09-09T01:18:33;3.53;;;1.30;;
3643;SDS011;1838;50.742;7.158;2022-09-09T01:24:03;5.47;;;2.33;;
3643;SDS011;1838;50.742;7.158;2022-09-09T01:26:49;3.23;;;1.97;;
3643;SDS011;1838;50.742;7.158;2022-09-09T01:29:19;2.67;;;1.40;;
3643;SDS011;1838;50.742;7.158;2022-09-09T01:34:23;5.57;;;2.17;;
3643;SDS011;1838;50.742;7.158;2022-09-09T01:37:01;6.00;;;1.50;;
3643;SDS011;1838;50.742;7.158;2022-09-09T01:39:29;8.03;;;1.77;;
3643;SDS011;1838;50.742;7.158;2022-09-09T01:41:56;5.27;;;2.10;;
3643;SDS011;1838;50.742;7.158;2022-09-09T01:44:22;6.03;;;1.73;;
3643;SDS011;1838;50.742;7.158;2022-09-09T01:46:49;6.50;;;1.70;;
3643;SDS011;1838;50.742;7.158;2022-09-09T01:49:15;7.70;;;2.20;;
3643;SDS011;1838;50.742;7.158;2022-09-09T01:51:42;5.40;;;1.60;;
3643;SDS011;1838;50.742;7.158;2022-09-09T01:54:11;4.53;;;1.50;;
3643;SDS011;1838;50.742;7.158;2022-09-09T01:56:41;3.40;;;1.33;;
3643;SDS011;1838;50.742;7.158;2022-09-09T01:59:16;2.37;;;1.37;;
3643;SDS011;1838;50.742;7.158;2022-09-09T02:04:23;2.40;;;2.07;;
3643;SDS011;1838;50.742;7.158;2022-09-09T02:07:01;7.03;;;1.97;;
3643;SDS011;1838;50.742;7.158;2022-09-09T02:09:29;4.33;;;1.57;;
3643;SDS011;1838;50.742;7.158;2022-09-09T02:12:03;11.10;;;1.60;;
3643;SDS011;1838;50.742;7.158;2022-09-09T02:14:35;5.83;;;1.60;;
3643;SDS011;1838;50.742;7.158;2022-09-09T02:17:10;3.03;;;1.10;;
3643;SDS011;1838;50.742;7.158;2022-09-09T02:19:49;4.23;;;1.53;;
3643;SDS011;1838;50.742;7.158;2022-09-09T02:22:20;2.57;;;1.40;;
3643;SDS011;1838;50.742;7.158;2022-09-09T02:24:49;5.80;;;1.67;;
3643;SDS011;1838;50.742;7.158;2022-09-09T02:27:18;4.27;;;1.80;;
3643;SDS011;1838;50.742;7.158;2022-09-09T02:29:46;4.53;;;1.60;;
3643;SDS011;1838;50.742;7.158;2022-09-09T02:32:16;2.13;;;1.50;;
3643;SDS011;1838;50.742;7.158;2022-09-09T02:34:45;12.03;;;2.03;;
3643;SDS011;1838;50.742;7.158;2022-09-09T02:37:36;3.13;;;1.50;;
3643;SDS011;1838;50.742;7.158;2022-09-09T02:40:07;3.90;;;1.30;;
3643;SDS011;1838;50.742;7.158;2022-09-09T02:42:38;3.80;;;1.50;;
3643;SDS011;1838;50.742;7.158;2022-09-09T02:45:09;6.47;;;1.60;;
3643;SDS011;1838;50.742;7.158;2022-09-09T02:50:13;4.77;;;1.80;;
3643;SDS011;1838;50.742;7.158;2022-09-09T02:52:56;6.13;;;1.50;;
3643;SDS011;1838;50.742;7.158;2022-09-09T02:55:50;7.83;;;2.07;;
3643;SDS011;1838;50.742;7.158;2022-09-09T02:58:20;4.30;;;2.00;;
3643;SDS011;1838;50.742;7.158;2022-09-09T03:00:47;2.50;;;1.30;;
3643;SDS011;1838;50.742;7.158;2022-09-09T03:03:15;4.23;;;1.50;;
3643;SDS011;1838;50.742;7.158;2022-09-09T03:05:42;4.73;;;1.40;;
3643;SDS011;1838;50.742;7.158;2022-09-09T03:08:08;5.00;;;1.60;;
3643;SDS011;1838;50.742;7.158;2022-09-09T03:10:34;2.77;;;1.67;;
3643;SDS011;1838;50.742;7.158;2022-09-09T03:13:00;4.90;;;1.60;;
3643;SDS011;1838;50.742;7.158;2022-09-09T03:15:25;2.53;;;1.70;;
3643;SDS011;1838;50.742;7.158;2022-09-09T03:17:56;2.60;;;1.43;;
3643;SDS011;1838;50.742;7.158;2022-09-09T03:20:22;4.83;;;1.23;;
3643;SDS011;1838;50.742;7.158;2022-09-09T03:22:48;3.10;;;1.70;;
3643;SDS011;1838;50.742;7.158;2022-09-09T03:25:14;3.70;;;1.70;;
3643;SDS011;1838;50.742;7.158;2022-09-09T03:27:40;3.50;;;1.80;;
3643;SDS011;1838;50.742;7.158;2022-09-09T03:30:05;3.70;;;1.70;;
3643;SDS011;1838;50.742;7.158;2022-09-09T03:32:32;4.70;;;2.20;;
3643;SDS011;1838;50.742;7.158;2022-09-09T03:34:57;3.67;;;1.67;;
3643;SDS011;1838;50.742;7.158;2022-09-09T03:37:23;4.23;;;1.97;;
3643;SDS011;1838;50.742;7.158;2022-09-09T03:39:48;4.27;;;1.63;;
3643;SDS011;1838;50.742;7.158;2022-09-09T03:42:14;4.77;;;1.73;;
3643;SDS011;1838;50.742;7.158;2022-09-09T03:44:44;3.87;;;1.33;;
3643;SDS011;1838;50.742;7.158;2022-09-09T03:47:13;4.63;;;1.77;;
3643;SDS011;1838;50.742;7.158;2022-09-09T03:49:38;13.30;;;2.50;;
3643;SDS011;1838;50.742;7.158;2022-09-09T03:52:04;3.57;;;1.53;;
3643;SDS011;1838;50.742;7.158;2022-09-09T03:54:29;4.90;;;1.67;;
3643;SDS011;1838;50.742;7.158;2022-09-09T03:56:55;3.93;;;1.87;;
3643;SDS011;1838;50.742;7.158;2022-09-09T03:59:20;2.33;;;1.50;;
3643;SDS011;1838;50.742;7.158;2022-09-09T04:01:46;2.47;;;1.70;;
3643;SDS011;1838;50.742;7.158;2022-09-09T04:04:12;3.53;;;2.00;;
3643;SDS011;1838;50.742;7.158;2022-09-09T04:06:37;3.90;;;1.80;;
3643;SDS011;1838;50.742;7.158;2022-09-09T04:09:03;4.73;;;1.60;;
3643;SDS011;1838;50.742;7.158;2022-09-09T04:11:29;3.47;;;1.53;;
3643;SDS011;1838;50.742;7.158;2022-09-09T04:13:54;4.70;;;1.97;;
3643;SDS011;1838;50.742;7.158;2022-09-09T04:16:20;7.27;;;2.17;;
3643;SDS011;1838;50.742;7.158;2022-09-09T04:18:45;5.17;;;1.73;;
3643;SDS011;1838;50.742;7.158;2022-09-09T04:21:11;5.33;;;1.87;;
3643;SDS011;1838;50.742;7.158;2022-09-09T04:23:37;4.63;;;1.70;;
3643;SDS011;1838;50.742;7.158;2022-09-09T04:26:03;7.80;;;2.10;;
3643;SDS011;1838;50.742;7.158;2022-09-09T04:28:30;7.50;;;1.57;;
3643;SDS011;1838;50.742;7.158;2022-09-09T04:31:03;6.63;;;1.80;;
3643;SDS011;1838;50.742;7.158;2022-09-09T04:33:30;3.33;;;1.70;;
3643;SDS011;1838;50.742;7.158;2022-09-09T04:35:56;2.50;;;1.70;;
3643;SDS011;1838;50.742;7.158;2022-09-09T04:38:22;5.83;;;2.70;;
3643;SDS011;1838;50.742;7.158;2022-09-09T04:40:48;3.60;;;1.77;;
3643;SDS011;1838;50.742;7.158;2022-09-09T04:43:16;7.70;;;2.30;;
3643;SDS011;1838;50.742;7.158;2022-09-09T04:45:42;5.93;;;1.73;;
3643;SDS011;1838;50.742;7.158;2022-09-09T04:48:07;10.97;;;2.40;;
3643;SDS011;1838;50.742;7.158;2022-09-09T04:50:34;5.47;;;2.00;;
3643;SDS011;1838;50.742;7.158;2022-09-09T04:53:00;6.77;;;1.90;;
3643;SDS011;1838;50.742;7.158;2022-09-09T04:55:27;4.67;;;1.60;;
3643;SDS011;1838;50.742;7.158;2022-09-09T04:57:53;4.50;;;1.73;;
3643;SDS011;1838;50.742;7.158;2022-09-09T05:00:19;8.80;;;2.07;;
3643;SDS011;1838;50.742;7.158;2022-09-09T05:02:45;2.90;;;1.70;;
3643;SDS011;1838;50.742;7.158;2022-09-09T05:05:11;5.13;;;1.83;;
3643;SDS011;1838;50.742;7.158;2022-09-09T05:07:37;5.27;;;2.07;;
3643;SDS011;1838;50.742;7.158;2022-09-09T05:10:02;6.53;;;2.27;;
3643;SDS011;1838;50.742;7.158;2022-09-09T05:12:29;3.37;;;1.80;;
3643;SDS011;1838;50.742;7.158;2022-09-09T05:14:56;7.97;;;2.33;;
3643;SDS011;1838;50.742;7.158;2022-09-09T05:17:21;3.13;;;1.90;;
3643;SDS011;1838;50.742;7.158;2022-09-09T05:19:47;10.00;;;2.30;;
3643;SDS011;1838;50.742;7.158;2022-09-09T05:22:13;7.83;;;2.23;;
3643;SDS011;1838;50.742;7.158;2022-09-09T05:24:42;6.93;;;2.40;;
3643;SDS011;1838;50.742;7.158;2022-09-09T05:27:09;7.47;;;2.10;;
3643;SDS011;1838;50.742;7.158;2022-09-09T05:29:37;6.47;;;2.40;;
3643;SDS011;1838;50.742;7.158;2022-09-09T05:32:03;4.37;;;2.17;;
3643;SDS011;1838;50.742;7.158;2022-09-09T05:34:29;6.43;;;1.63;;
3643;SDS011;1838;50.742;7.158;2022-09-09T05:36:55;4.37;;;1.63;;
3643;SDS011;1838;50.742;7.158;2022-09-09T05:39:20;7.33;;;1.90;;
3643;SDS011;1838;50.742;7.158;2022-09-09T05:41:46;8.00;;;2.07;;
3643;SDS011;1838;50.742;7.158;2022-09-09T05:44:11;9.43;;;2.57;;
3643;SDS011;1838;50.742;7.158;2022-09-09T05:46:37;4.67;;;2.50;;
3643;SDS011;1838;50.742;7.158;2022-09-09T05:49:02;5.83;;;2.30;;
3643;SDS011;1838;50.742;7.158;2022-09-09T05:51:30;6.63;;;2.20;;
3643;SDS011;1838;50.742;7.158;2022-09-09T05:53:56;3.10;;;2.07;;
3643;SDS011;1838;50.742;7.158;2022-09-09T05:56:25;8.30;;;2.10;;
3643;SDS011;1838;50.742;7.158;2022-09-09T05:58:52;5.57;;;1.90;;
3643;SDS011;1838;50.742;7.158;2022-09-09T06:01:23;2.40;;;1.33;;
3643;SDS011;1838;50.742;7.158;2022-09-09T06:03:56;4.53;;;2.00;;
3643;SDS011;1838;50.742;7.158;2022-09-09T06:06:30;10.80;;;2.33;;
3643;SDS011;1838;50.742;7.158;2022-09-09T06:09:01;4.70;;;2.10;;
3643;SDS011;1838;50.742;7.158;2022-09-09T06:11:28;2.50;;;1.70;;
3643;SDS011;1838;50.742;7.158;2022-09-09T06:14:00;12.07;;;2.03;;
3643;SDS011;1838;50.742;7.158;2022-09-09T06:16:26;4.90;;;1.73;;
3643;SDS011;1838;50.742;7.158;2022-09-09T06:18:53;6.67;;;2.10;;
3643;SDS011;1838;50.742;7.158;2022-09-09T06:21:27;6.53;;;2.90;;
3643;SDS011;1838;50.742;7.158;2022-09-09T06:23:55;4.63;;;2.43;;
3643;SDS011;1838;50.742;7.158;2022-09-09T06:26:22;7.20;;;1.87;;
3643;SDS011;1838;50.742;7.158;2022-09-09T06:28:50;5.73;;;2.20;;
3643;SDS011;1838;50.742;7.158;2022-09-09T06:31:18;5.73;;;2.07;;
3643;SDS011;1838;50.742;7.158;2022-09-09T06:33:48;5.90;;;2.50;;
3643;SDS011;1838;50.742;7.158;2022-09-09T06:36:25;9.53;;;1.93;;
3643;SDS011;1838;50.742;7.158;2022-09-09T06:38:52;7.13;;;2.23;;
3643;SDS011;1838;50.742;7.158;2022-09-09T06:41:19;4.43;;;1.90;;
3643;SDS011;1838;50.742;7.158;2022-09-09T06:43:46;4.80;;;2.20;;
3643;SDS011;1838;50.742;7.158;2022-09-09T06:46:13;5.10;;;2.13;;
3643;SDS011;1838;50.742;7.158;2022-09-09T06:48:40;8.10;;;2.07;;
3643;SDS011;1838;50.742;7.158;2022-09-09T06:51:08;4.27;;;1.50;;
3643;SDS011;1838;50.742;7.158;2022-09-09T06:53:36;7.83;;;2.03;;
3643;SDS011;1838;50.742;7.158;2022-09-09T06:56:25;5.73;;;1.90;;
3643;SDS011;1838;50.742;7.158;2022-09-09T06:58:57;7.83;;;2.07;;
3643;SDS011;1838;50.742;7.158;2022-09-09T07:01:26;5.70;;;2.17;;
3643;SDS011;1838;50.742;7.158;2022-09-09T07:03:54;6.60;;;1.37;;
3643;SDS011;1838;50.742;7.158;2022-09-09T07:06:24;9.97;;;2.00;;
3643;SDS011;1838;50.742;7.158;2022-09-09T07:08:51;8.70;;;2.20;;
3643;SDS011;1838;50.742;7.158;2022-09-09T07:11:19;3.37;;;1.47;;
3643;SDS011;1838;50.742;7.158;2022-09-09T07:13:45;10.73;;;2.10;;
3643;SDS011;1838;50.742;7.158;2022-09-09T07:16:12;8.23;;;1.67;;
3643;SDS011;1838;50.742;7.158;2022-09-09T07:18:40;3.40;;;1.60;;
3643;SDS011;1838;50.742;7.158;2022-09-09T07:21:06;4.07;;;1.40;;
3643;SDS011;1838;50.742;7.158;2022-09-09T07:23:33;7.60;;;1.47;;
3643;SDS011;1838;50.742;7.158;2022-09-09T07:26:00;5.17;;;1.73;;
3643;SDS011;1838;50.742;7.158;2022-09-09T07:28:27;7.30;;;1.70;;
3643;SDS011;1838;50.742;7.158;2022-09-09T07:30:57;4.03;;;1.50;;
3643;SDS011;1838;50.742;7.158;2022-09-09T07:33:24;5.73;;;1.87;;
3643;SDS011;1838;50.742;7.158;2022-09-09T07:35:50;5.60;;;1.57;;
3643;SDS011;1838;50.742;7.158;2022-09-09T07:38:17;7.93;;;1.90;;
3643;SDS011;1838;50.742;7.158;2022-09-09T07:40:43;5.10;;;1.47;;
3643;SDS011;1838;50.742;7.158;2022-09-09T07:43:09;7.00;;;1.97;;
3643;SDS011;1838;50.742;7.158;2022-09-09T07:45:38;6.23;;;2.33;;
3643;SDS011;1838;50.742;7.158;2022-09-09T07:48:05;3.30;;;1.47;;
3643;SDS011;1838;50.742;7.158;2022-09-09T07:50:30;4.77;;;1.43;;
3643;SDS011;1838;50.742;7.158;2022-09-09T07:52:56;4.30;;;1.77;;
3643;SDS011;1838;50.742;7.158;2022-09-09T07:55:22;5.33;;;1.70;;
3643;SDS011;1838;50.742;7.158;2022-09-09T07:57:52;3.53;;;1.60;;
3643;SDS011;1838;50.742;7.158;2022-09-09T08:00:18;6.73;;;1.83;;
3643;SDS011;1838;50.742;7.158;2022-09-09T08:02:45;6.37;;;1.70;;
3643;SDS011;1838;50.742;7.158;2022-09-09T08:05:11;6.73;;;2.10;;
3643;SDS011;1838;50.742;7.158;2022-09-09T08:07:37;7.50;;;1.70;;
3643;SDS011;1838;50.742;7.158;2022-09-09T08:10:04;7.97;;;2.53;;
3643;SDS011;1838;50.742;7.158;2022-09-09T08:12:31;7.00;;;1.70;;
3643;SDS011;1838;50.742;7.158;2022-09-09T08:14:57;5.27;;;2.10;;
3643;SDS011;1838;50.742;7.158;2022-09-09T08:17:22;5.70;;;1.50;;
3643;SDS011;1838;50.742;7.158;2022-09-09T08:19:48;6.77;;;2.00;;
3643;SDS011;1838;50.742;7.158;2022-09-09T08:22:14;8.27;;;1.73;;
3643;SDS011;1838;50.742;7.158;2022-09-09T08:24:39;5.30;;;1.90;;
3643;SDS011;1838;50.742;7.158;2022-09-09T08:27:05;6.07;;;2.00;;
3643;SDS011;1838;50.742;7.158;2022-09-09T08:29:31;12.73;;;1.93;;
3643;SDS011;1838;50.742;7.158;2022-09-09T08:31:58;4.43;;;1.40;;
3643;SDS011;1838;50.742;7.158;2022-09-09T08:34:24;5.70;;;1.90;;
3643;SDS011;1838;50.742;7.158;2022-09-09T08:36:51;4.00;;;1.57;;
3643;SDS011;1838;50.742;7.158;2022-09-09T08:39:18;7.77;;;1.90;;
3643;SDS011;1838;50.742;7.158;2022-09-09T08:47:27;6.87;;;1.50;;
3643;SDS011;1838;50.742;7.158;2022-09-09T08:52:31;3.87;;;1.47;;
3643;SDS011;1838;50.742;7.158;2022-09-09T08:55:11;11.03;;;1.77;;
3643;SDS011;1838;50.742;7.158;2022-09-09T08:57:56;3.83;;;1.30;;
3643;SDS011;1838;50.742;7.158;2022-09-09T09:00:28;3.80;;;1.43;;
3643;SDS011;1838;50.742;7.158;2022-09-09T09:06:37;4.97;;;1.40;;
3643;SDS011;1838;50.742;7.158;2022-09-09T09:11:37;3.40;;;1.40;;
3643;SDS011;1838;50.742;7.158;2022-09-09T09:16:48;5.33;;;1.27;;
3643;SDS011;1838;50.742;7.158;2022-09-09T09:19:21;8.73;;;1.57;;
3643;SDS011;1838;50.742;7.158;2022-09-09T09:21:57;5.93;;;1.43;;
3643;SDS011;1838;50.742;7.158;2022-09-09T09:24:32;5.30;;;1.40;;
3643;SDS011;1838;50.742;7.158;2022-09-09T09:27:11;2.27;;;1.13;;
3643;SDS011;1838;50.742;7.158;2022-09-09T09:29:46;5.37;;;1.70;;
3643;SDS011;1838;50.742;7.158;2022-09-09T09:32:16;7.50;;;1.30;;
3643;SDS011;1838;50.742;7.158;2022-09-09T09:34:48;7.63;;;1.83;;
3643;SDS011;1838;50.742;7.158;2022-09-09T09:37:25;2.43;;;1.07;;
3643;SDS011;1838;50.742;7.158;2022-09-09T09:39:54;6.00;;;1.90;;
3643;SDS011;1838;50.742;7.158;2022-09-09T09:42:19;14.50;;;1.40;;
3643;SDS011;1838;50.742;7.158;2022-09-09T09:44:45;3.30;;;1.00;;
3643;SDS011;1838;50.742;7.158;2022-09-09T09:47:15;10.67;;;2.17;;
3643;SDS011;1838;50.742;7.158;2022-09-09T09:49:54;4.60;;;1.30;;
3643;SDS011;1838;50.742;7.158;2022-09-09T09:52:33;3.73;;;1.60;;
3643;SDS011;1838;50.742;7.158;2022-09-09T09:55:02;4.23;;;1.10;;
3643;SDS011;1838;50.742;7.158;2022-09-09T09:57:29;6.70;;;1.40;;
3643;SDS011;1838;50.742;7.158;2022-09-09T10:02:42;8.60;;;1.83;;
3643;SDS011;1838;50.742;7.158;2022-09-09T10:08:04;3.10;;;1.17;;
3643;SDS011;1838;50.742;7.158;2022-09-09T10:10:49;6.00;;;1.60;;
3643;SDS011;1838;50.742;7.158;2022-09-09T10:13:38;3.70;;;1.20;;
3643;SDS011;1838;50.742;7.158;2022-09-09T10:16:35;7.40;;;2.13;;
3643;SDS011;1838;50.742;7.158;2022-09-09T10:19:19;5.90;;;1.40;;
3643;SDS011;1838;50.742;7.158;2022-09-09T10:22:03;2.77;;;1.30;;
3643;SDS011;1838;50.742;7.158;2022-09-09T10:24:42;3.87;;;1.30;;
3643;SDS011;1838;50.742;7.158;2022-09-09T10:27:16;5.50;;;1.60;;
3643;SDS011;1838;50.742;7.158;2022-09-09T10:30:01;10.30;;;1.77;;
3643;SDS011;1838;50.742;7.158;2022-09-09T10:32:56;2.67;;;1.30;;
3643;SDS011;1838;50.742;7.158;2022-09-09T10:43:03;1.90;;;1.20;;
3643;SDS011;1838;50.742;7.158;2022-09-09T10:48:29;4.87;;;1.53;;
3643;SDS011;1838;50.742;7.158;2022-09-09T10:54:05;3.53;;;1.27;;
3643;SDS011;1838;50.742;7.158;2022-09-09T10:56:49;6.70;;;1.67;;
3643;SDS011;1838;50.742;7.158;2022-09-09T10:59:20;2.00;;;1.27;;
3643;SDS011;1838;50.742;7.158;2022-09-09T11:02:00;4.60;;;1.60;;
3643;SDS011;1838;50.742;7.158;2022-09-09T11:07:00;2.53;;;1.33;;
3643;SDS011;1838;50.742;7.158;2022-09-09T11:09:31;7.77;;;1.53;;
3643;SDS011;1838;50.742;7.158;2022-09-09T11:12:02;3.00;;;1.10;;
3643;SDS011;1838;50.742;7.158;2022-09-09T11:14:34;2.40;;;0.97;;
3643;SDS011;1838;50.742;7.158;2022-09-09T11:19:38;6.30;;;1.60;;
3643;SDS011;1838;50.742;7.158;2022-09-09T11:22:14;1.73;;;1.10;;
3643;SDS011;1838;50.742;7.158;2022-09-09T11:25:05;3.73;;;1.30;;
3643;SDS011;1838;50.742;7.158;2022-09-09T11:30:21;6.03;;;1.37;;
3643;SDS011;1838;50.742;7.158;2022-09-09T11:39:14;3.13;;;1.00;;
3643;SDS011;1838;50.742;7.158;2022-09-09T11:41:17;2.27;;;1.07;;
3643;SDS011;1838;50.742;7.158;2022-09-09T11:43:47;2.50;;;1.40;;
3643;SDS011;1838;50.742;7.158;2022-09-09T11:46:16;2.70;;;0.93;;
3643;SDS011;1838;50.742;7.158;2022-09-09T11:48:45;2.53;;;1.07;;
3643;SDS011;1838;50.742;7.158;2022-09-09T11:53:55;3.43;;;1.10;;
3643;SDS011;1838;50.742;7.158;2022-09-09T11:56:45;2.13;;;0.90;;
3643;SDS011;1838;50.742;7.158;2022-09-09T11:59:24;2.97;;;1.20;;
3643;SDS011;1838;50.742;7.158;2022-09-09T12:01:58;4.03;;;1.33;;
3643;SDS011;1838;50.742;7.158;2022-09-09T12:04:37;2.80;;;1.10;;
3643;SDS011;1838;50.742;7.158;2022-09-09T12:09:58;4.23;;;1.30;;
3643;SDS011;1838;50.742;7.158;2022-09-09T12:12:33;2.80;;;0.90;;
3643;SDS011;1838;50.742;7.158;2022-09-09T12:17:36;2.70;;;1.00;;
3643;SDS011;1838;50.742;7.158;2022-09-09T12:23:02;3.07;;;1.20;;
3643;SDS011;1838;50.742;7.158;2022-09-09T12:25:46;2.93;;;1.03;;
3643;SDS011;1838;50.742;7.158;2022-09-09T12:28:27;3.73;;;1.30;;
3643;SDS011;1838;50.742;7.158;2022-09-09T12:30:59;3.70;;;1.57;;
3643;SDS011;1838;50.742;7.158;2022-09-09T12:33:36;5.47;;;1.27;;
3643;SDS011;1838;50.742;7.158;2022-09-09T12:36:10;4.70;;;1.20;;
3643;SDS011;1838;50.742;7.158;2022-09-09T12:38:48;2.03;;;1.40;;
3643;SDS011;1838;50.742;7.158;2022-09-09T12:41:18;3.60;;;1.53;;
3643;SDS011;1838;50.742;7.158;2022-09-09T12:43:46;3.13;;;1.00;;
3643;SDS011;1838;50.742;7.158;2022-09-09T12:46:20;6.63;;;1.47;;
3643;SDS011;1838;50.742;7.158;2022-09-09T12:48:57;3.27;;;1.30;;
3643;SDS011;1838;50.742;7.158;2022-09-09T12:51:24;6.50;;;1.90;;
3643;SDS011;1838;50.742;7.158;2022-09-09T12:53:54;5.03;;;1.00;;
3643;SDS011;1838;50.742;7.158;2022-09-09T12:56:21;3.93;;;1.20;;
3643;SDS011;1838;50.742;7.158;2022-09-09T12:58:54;7.33;;;1.50;;
3643;SDS011;1838;50.742;7.158;2022-09-09T13:01:24;7.70;;;1.33;;
3643;SDS011;1838;50.742;7.158;2022-09-09T13:03:58;1.80;;;1.00;;
3643;SDS011;1838;50.742;7.158;2022-09-09T13:06:25;5.00;;;1.70;;
3643;SDS011;1838;50.742;7.158;2022-09-09T13:08:52;2.80;;;1.33;;
3643;SDS011;1838;50.742;7.158;2022-09-09T13:11:20;4.67;;;1.53;;
3643;SDS011;1838;50.742;7.158;2022-09-09T13:13:51;4.50;;;1.60;;
3643;SDS011;1838;50.742;7.158;2022-09-09T13:16:20;5.30;;;1.10;;
3643;SDS011;1838;50.742;7.158;2022-09-09T13:18:57;3.40;;;0.90;;
3643;SDS011;1838;50.742;7.158;2022-09-09T13:21:33;4.47;;;1.60;;
3643;SDS011;1838;50.742;7.158;2022-09-09T13:24:00;4.93;;;1.43;;
3643;SDS011;1838;50.742;7.158;2022-09-09T13:26:28;4.30;;;1.47;;
3643;SDS011;1838;50.742;7.158;2022-09-09T13:28:55;2.93;;;1.00;;
3643;SDS011;1838;50.742;7.158;2022-09-09T13:31:33;3.80;;;1.27;;
3643;SDS011;1838;50.742;7.158;2022-09-09T13:34:10;3.60;;;1.20;;
3643;SDS011;1838;50.742;7.158;2022-09-09T13:36:52;2.47;;;1.10;;
3643;SDS011;1838;50.742;7.158;2022-09-09T13:39:30;4.17;;;1.23;;
3643;SDS011;1838;50.742;7.158;2022-09-09T13:41:59;6.57;;;1.80;;
3643;SDS011;1838;50.742;7.158;2022-09-09T13:44:27;3.20;;;1.10;;
3643;SDS011;1838;50.742;7.158;2022-09-09T13:46:59;3.10;;;1.00;;
3643;SDS011;1838;50.742;7.158;2022-09-09T13:49:45;3.40;;;1.23;;
3643;SDS011;1838;50.742;7.158;2022-09-09T13:52:14;3.50;;;1.03;;
3643;SDS011;1838;50.742;7.158;2022-09-09T13:54:43;1.83;;;0.80;;
3643;SDS011;1838;50.742;7.158;2022-09-09T13:57:17;2.70;;;0.70;;
3643;SDS011;1838;50.742;7.158;2022-09-09T13:59:45;3.70;;;1.07;;
3643;SDS011;1838;50.742;7.158;2022-09-09T14:02:11;5.40;;;1.40;;
3643;SDS011;1838;50.742;7.158;2022-09-09T14:04:37;2.30;;;1.00;;
3643;SDS011;1838;50.742;7.158;2022-09-09T14:07:06;1.90;;;1.00;;
3643;SDS011;1838;50.742;7.158;2022-09-09T14:09:34;2.40;;;0.97;;
3643;SDS011;1838;50.742;7.158;2022-09-09T14:11:59;5.30;;;1.47;;
3643;SDS011;1838;50.742;7.158;2022-09-09T14:14:25;2.63;;;1.27;;
3643;SDS011;1838;50.742;7.158;2022-09-09T14:16:50;4.03;;;1.27;;
3643;SDS011;1838;50.742;7.158;2022-09-09T14:19:16;9.13;;;1.17;;
3643;SDS011;1838;50.742;7.158;2022-09-09T14:21:42;1.80;;;1.00;;
3643;SDS011;1838;50.742;7.158;2022-09-09T14:24:08;3.50;;;0.90;;
3643;SDS011;1838;50.742;7.158;2022-09-09T14:26:33;3.77;;;1.20;;
3643;SDS011;1838;50.742;7.158;2022-09-09T14:28:59;1.47;;;0.70;;
3643;SDS011;1838;50.742;7.158;2022-09-09T14:31:26;1.50;;;0.70;;
3643;SDS011;1838;50.742;7.158;2022-09-09T14:33:51;6.30;;;0.90;;
3643;SDS011;1838;50.742;7.158;2022-09-09T14:36:17;2.87;;;0.80;;
3643;SDS011;1838;50.742;7.158;2022-09-09T14:38:43;1.80;;;0.77;;
3643;SDS011;1838;50.742;7.158;2022-09-09T14:41:09;1.80;;;0.80;;
3643;SDS011;1838;50.742;7.158;2022-09-09T14:43:39;4.80;;;0.80;;
3643;SDS011;1838;50.742;7.158;2022-09-09T14:46:05;7.50;;;1.00;;
3643;SDS011;1838;50.742;7.158;2022-09-09T14:48:32;1.70;;;0.70;;
3643;SDS011;1838;50.742;7.158;2022-09-09T14:51:04;4.70;;;0.70;;
3643;SDS011;1838;50.742;7.158;2022-09-09T14:53:33;2.10;;;0.90;;
3643;SDS011;1838;50.742;7.158;2022-09-09T14:56:15;6.40;;;1.10;;
3643;SDS011;1838;50.742;7.158;2022-09-09T14:58:43;2.77;;;1.00;;
3643;SDS011;1838;50.742;7.158;2022-09-09T15:01:10;1.70;;;0.73;;
3643;SDS011;1838;50.742;7.158;2022-09-09T15:03:38;1.83;;;0.80;;
3643;SDS011;1838;50.742;7.158;2022-09-09T15:06:09;2.33;;;0.93;;
3643;SDS011;1838;50.742;7.158;2022-09-09T15:08:37;2.23;;;0.80;;
3643;SDS011;1838;50.742;7.158;2022-09-09T15:11:04;1.80;;;0.80;;
3643;SDS011;1838;50.742;7.158;2022-09-09T15:13:32;2.00;;;0.90;;
3643;SDS011;1838;50.742;7.158;2022-09-09T15:18:31;1.97;;;0.97;;
3643;SDS011;1838;50.742;7.158;2022-09-09T15:20:58;4.50;;;1.27;;
3643;SDS011;1838;50.742;7.158;2022-09-09T15:23:24;3.00;;;1.10;;
3643;SDS011;1838;50.742;7.158;2022-09-09T15:25:51;3.37;;;0.90;;
3643;SDS011;1838;50.742;7.158;2022-09-09T15:28:21;4.03;;;1.10;;
3643;SDS011;1838;50.742;7.158;2022-09-09T15:30:47;2.70;;;0.97;;
3643;SDS011;1838;50.742;7.158;2022-09-09T15:33:14;1.83;;;0.93;;
3643;SDS011;1838;50.742;7.158;2022-09-09T15:35:40;3.80;;;1.33;;
3643;SDS011;1838;50.742;7.158;2022-09-09T15:38:05;2.43;;;0.90;;
3643;SDS011;1838;50.742;7.158;2022-09-09T15:40:31;3.17;;;1.30;;
3643;SDS011;1838;50.742;7.158;2022-09-09T15:42:59;3.93;;;1.27;;
3643;SDS011;1838;50.742;7.158;2022-09-09T15:45:24;2.20;;;1.07;;
3643;SDS011;1838;50.742;7.158;2022-09-09T15:47:51;3.97;;;1.10;;
3643;SDS011;1838;50.742;7.158;2022-09-09T15:50:17;3.80;;;0.80;;
3643;SDS011;1838;50.742;7.158;2022-09-09T15:52:43;2.10;;;1.00;;
3643;SDS011;1838;50.742;7.158;2022-09-09T15:55:09;2.83;;;1.13;;
3643;SDS011;1838;50.742;7.158;2022-09-09T15:57:34;2.13;;;0.93;;
3643;SDS011;1838;50.742;7.158;2022-09-09T16:00:01;2.37;;;1.20;;
3643;SDS011;1838;50.742;7.158;2022-09-09T16:02:28;1.50;;;0.80;;
3643;SDS011;1838;50.742;7.158;2022-09-09T16:04:55;3.30;;;1.07;;
3643;SDS011;1838;50.742;7.158;2022-09-09T16:07:22;1.80;;;0.90;;
3643;SDS011;1838;50.742;7.158;2022-09-09T16:09:47;2.57;;;1.00;;
3643;SDS011;1838;50.742;7.158;2022-09-09T16:12:15;2.77;;;1.30;;
3643;SDS011;1838;50.742;7.158;2022-09-09T16:14:41;2.13;;;1.30;;
3643;SDS011;1838;50.742;7.158;2022-09-09T16:17:06;4.13;;;1.23;;
3643;SDS011;1838;50.742;7.158;2022-09-09T16:19:32;3.80;;;1.20;;
3643;SDS011;1838;50.742;7.158;2022-09-09T16:21:59;2.03;;;0.97;;
3643;SDS011;1838;50.742;7.158;2022-09-09T16:24:25;2.67;;;0.90;;
3643;SDS011;1838;50.742;7.158;2022-09-09T16:26:51;3.87;;;1.00;;
3643;SDS011;1838;50.742;7.158;2022-09-09T16:29:19;2.87;;;1.10;;
3643;SDS011;1838;50.742;7.158;2022-09-09T16:31:46;3.33;;;0.97;;
3643;SDS011;1838;50.742;7.158;2022-09-09T16:34:13;2.20;;;0.90;;
3643;SDS011;1838;50.742;7.158;2022-09-09T16:36:40;4.20;;;1.20;;
3643;SDS011;1838;50.742;7.158;2022-09-09T16:39:11;2.47;;;1.10;;
3643;SDS011;1838;50.742;7.158;2022-09-09T16:41:41;1.50;;;0.90;;
3643;SDS011;1838;50.742;7.158;2022-09-09T16:44:09;4.27;;;1.20;;
3643;SDS011;1838;50.742;7.158;2022-09-09T16:46:38;3.60;;;1.20;;
3643;SDS011;1838;50.742;7.158;2022-09-09T16:49:06;2.73;;;1.30;;
3643;SDS011;1838;50.742;7.158;2022-09-09T16:51:35;2.20;;;1.23;;
3643;SDS011;1838;50.742;7.158;2022-09-09T16:54:06;2.43;;;0.90;;
3643;SDS011;1838;50.742;7.158;2022-09-09T16:56:33;2.07;;;1.17;;
3643;SDS011;1838;50.742;7.158;2022-09-09T16:59:03;2.03;;;1.20;;
3643;SDS011;1838;50.742;7.158;2022-09-09T17:01:31;3.37;;;1.13;;
3643;SDS011;1838;50.742;7.158;2022-09-09T17:04:02;3.97;;;1.30;;
3643;SDS011;1838;50.742;7.158;2022-09-09T17:06:30;5.80;;;1.43;;
3643;SDS011;1838;50.742;7.158;2022-09-09T17:08:58;3.20;;;1.20;;
3643;SDS011;1838;50.742;7.158;2022-09-09T17:11:26;6.83;;;1.73;;
3643;SDS011;1838;50.742;7.158;2022-09-09T17:13:52;3.40;;;1.40;;
3643;SDS011;1838;50.742;7.158;2022-09-09T17:16:19;3.73;;;1.17;;